sensor_id;sensor_type;location;lat;lon;timestamp;pressure;altitude;pressure_sealevel;temperature;humidity
45872;BME280;32333;55.844;-3.210;2022-08-19T00:01:56;98703.08;;;11.57;100.00
45872;BME280;32333;55.844;-3.210;2022-08-19T00:04:28;98704.36;;;10.64;100.00
45872;BME280;32333;55.844;-3.210;2022-08-19T00:06:57;98702.35;;;10.93;100.00
45872;BME280;32333;55.844;-3.210;2022-08-19T00:09:26;98698.77;;;11.90;100.00
45872;BME280;32333;55.844;-3.210;2022-08-19T00:11:55;98695.65;;;11.29;100.00
45872;BME280;32333;55.844;-3.210;2022-08-19T00:14:36;98697.15;;;11.45;100.00
45872;BME280;32333;55.844;-3.210;2022-08-19T00:17:05;98697.98;;;10.49;100.00
45872;BME280;32333;55.844;-3.210;2022-08-19T00:19:34;98694.59;;;10.07;100.00
45872;BME280;32333;55.844;-3.210;2022-08-19T00:22:03;98690.27;;;10.40;100.00
45872;BME280;32333;55.844;-3.210;2022-08-19T00:24:31;98698.27;;;9.97;100.00
45872;BME280;32333;55.844;-3.210;2022-08-19T00:26:58;98695.78;;;10.37;100.00
45872;BME280;32333;55.844;-3.210;2022-08-19T00:29:26;98698.51;;;10.86;100.00
45872;BME280;32333;55.844;-3.210;2022-08-19T00:31:54;98701.38;;;10.29;100.00
45872;BME280;32333;55.844;-3.210;2022-08-19T00:34:22;98705.01;;;10.62;100.00
45872;BME280;32333;55.844;-3.210;2022-08-19T00:36:50;98704.90;;;10.02;100.00
45872;BME280;32333;55.844;-3.210;2022-08-19T00:39:18;98699.39;;;10.37;100.00
45872;BME280;32333;55.844;-3.210;2022-08-19T00:41:47;98704.80;;;10.08;100.00
45872;BME280;32333;55.844;-3.210;2022-08-19T00:44:35;98706.88;;;10.55;100.00
45872;BME280;32333;55.844;-3.210;2022-08-19T00:47:03;98709.98;;;9.85;100.00
45872;BME280;32333;55.844;-3.210;2022-08-19T00:49:34;98711.23;;;10.13;100.00
45872;BME280;32333;55.844;-3.210;2022-08-19T00:52:06;98712.38;;;10.12;100.00
45872;BME280;32333;55.844;-3.210;2022-08-19T00:54:36;98715.74;;;9.95;100.00
45872;BME280;32333;55.844;-3.210;2022-08-19T00:57:06;98717.38;;;9.61;100.00
45872;BME280;32333;55.844;-3.210;2022-08-19T00:59:37;98713.15;;;10.82;100.00
45872;BME280;32333;55.844;-3.210;2022-08-19T01:02:08;98711.17;;;10.93;100.00
45872;BME280;32333;55.844;-3.210;2022-08-19T01:04:36;98707.45;;;10.96;100.00
45872;BME280;32333;55.844;-3.210;2022-08-19T01:07:03;98713.69;;;10.36;100.00
45872;BME280;32333;55.844;-3.210;2022-08-19T01:09:31;98714.93;;;10.21;100.00
45872;BME280;32333;55.844;-3.210;2022-08-19T01:11:58;98713.01;;;10.26;100.00
45872;BME280;32333;55.844;-3.210;2022-08-19T01:14:36;98713.93;;;10.41;100.00
45872;BME280;32333;55.844;-3.210;2022-08-19T01:17:06;98707.76;;;9.81;100.00
45872;BME280;32333;55.844;-3.210;2022-08-19T01:19:37;98707.85;;;10.36;100.00
45872;BME280;32333;55.844;-3.210;2022-08-19T01:22:10;98715.07;;;9.97;100.00
45872;BME280;32333;55.844;-3.210;2022-08-19T01:24:39;98712.26;;;9.26;100.00
45872;BME280;32333;55.844;-3.210;2022-08-19T01:27:07;98716.81;;;10.75;100.00
45872;BME280;32333;55.844;-3.210;2022-08-19T01:29:39;98720.55;;;9.64;100.00
45872;BME280;32333;55.844;-3.210;2022-08-19T01:32:10;98724.15;;;10.22;100.00
45872;BME280;32333;55.844;-3.210;2022-08-19T01:34:39;98726.02;;;10.20;100.00
45872;BME280;32333;55.844;-3.210;2022-08-19T01:37:07;98725.53;;;10.11;100.00
45872;BME280;32333;55.844;-3.210;2022-08-19T01:39:36;98720.25;;;10.00;100.00
45872;BME280;32333;55.844;-3.210;2022-08-19T01:44:36;98707.25;;;9.45;100.00
45872;BME280;32333;55.844;-3.210;2022-08-19T01:47:04;98707.09;;;9.83;100.00
45872;BME280;32333;55.844;-3.210;2022-08-19T01:49:32;98709.71;;;10.17;100.00
45872;BME280;32333;55.844;-3.210;2022-08-19T01:52:00;98712.94;;;9.51;100.00
45872;BME280;32333;55.844;-3.210;2022-08-19T01:54:28;98714.45;;;10.34;100.00
45872;BME280;32333;55.844;-3.210;2022-08-19T01:56:58;98716.32;;;10.12;100.00
45872;BME280;32333;55.844;-3.210;2022-08-19T01:59:28;98715.16;;;9.64;100.00
45872;BME280;32333;55.844;-3.210;2022-08-19T02:01:55;98714.84;;;9.69;100.00
45872;BME280;32333;55.844;-3.210;2022-08-19T02:04:22;98713.73;;;9.66;100.00
45872;BME280;32333;55.844;-3.210;2022-08-19T02:06:49;98722.64;;;9.27;100.00
45872;BME280;32333;55.844;-3.210;2022-08-19T02:09:17;98722.24;;;10.01;100.00
45872;BME280;32333;55.844;-3.210;2022-08-19T02:11:45;98728.34;;;10.63;100.00
45872;BME280;32333;55.844;-3.210;2022-08-19T02:14:36;98723.61;;;10.18;100.00
45872;BME280;32333;55.844;-3.210;2022-08-19T02:17:03;98724.46;;;10.22;100.00
45872;BME280;32333;55.844;-3.210;2022-08-19T02:19:31;98730.68;;;10.42;100.00
45872;BME280;32333;55.844;-3.210;2022-08-19T02:22:00;98741.44;;;9.84;100.00
45872;BME280;32333;55.844;-3.210;2022-08-19T02:24:27;98741.59;;;10.06;100.00
45872;BME280;32333;55.844;-3.210;2022-08-19T02:26:55;98741.36;;;10.07;100.00
45872;BME280;32333;55.844;-3.210;2022-08-19T02:29:23;98742.80;;;10.52;100.00
45872;BME280;32333;55.844;-3.210;2022-08-19T02:31:51;98751.68;;;10.25;100.00
45872;BME280;32333;55.844;-3.210;2022-08-19T02:34:19;98748.11;;;10.58;100.00
45872;BME280;32333;55.844;-3.210;2022-08-19T02:36:47;98740.68;;;10.91;100.00
45872;BME280;32333;55.844;-3.210;2022-08-19T02:39:15;98741.71;;;10.93;100.00
45872;BME280;32333;55.844;-3.210;2022-08-19T02:41:43;98741.92;;;10.74;100.00
45872;BME280;32333;55.844;-3.210;2022-08-19T02:44:35;98751.53;;;10.12;100.00
45872;BME280;32333;55.844;-3.210;2022-08-19T02:47:03;98748.30;;;10.50;100.00
45872;BME280;32333;55.844;-3.210;2022-08-19T02:49:31;98748.76;;;10.65;100.00
45872;BME280;32333;55.844;-3.210;2022-08-19T02:51:59;98741.30;;;10.84;100.00
45872;BME280;32333;55.844;-3.210;2022-08-19T02:54:26;98743.41;;;11.01;100.00
45872;BME280;32333;55.844;-3.210;2022-08-19T02:56:54;98749.12;;;10.65;100.00
45872;BME280;32333;55.844;-3.210;2022-08-19T02:59:22;98749.18;;;10.68;100.00
45872;BME280;32333;55.844;-3.210;2022-08-19T03:01:49;98746.07;;;10.95;100.00
45872;BME280;32333;55.844;-3.210;2022-08-19T03:04:17;98747.86;;;10.86;100.00
45872;BME280;32333;55.844;-3.210;2022-08-19T03:06:47;98742.60;;;10.93;100.00
45872;BME280;32333;55.844;-3.210;2022-08-19T03:09:15;98747.80;;;11.57;100.00
45872;BME280;32333;55.844;-3.210;2022-08-19T03:11:42;98751.94;;;11.33;100.00
45872;BME280;32333;55.844;-3.210;2022-08-19T03:14:36;98754.68;;;11.31;100.00
45872;BME280;32333;55.844;-3.210;2022-08-19T03:17:04;98757.29;;;10.58;100.00
45872;BME280;32333;55.844;-3.210;2022-08-19T03:19:32;98755.54;;;10.76;100.00
45872;BME280;32333;55.844;-3.210;2022-08-19T03:21:59;98752.48;;;11.65;100.00
45872;BME280;32333;55.844;-3.210;2022-08-19T03:24:27;98757.85;;;10.49;100.00
45872;BME280;32333;55.844;-3.210;2022-08-19T03:26:56;98757.40;;;10.73;100.00
45872;BME280;32333;55.844;-3.210;2022-08-19T03:29:25;98758.27;;;10.62;100.00
45872;BME280;32333;55.844;-3.210;2022-08-19T03:31:53;98751.56;;;10.79;100.00
45872;BME280;32333;55.844;-3.210;2022-08-19T03:34:26;98753.99;;;10.06;100.00
45872;BME280;32333;55.844;-3.210;2022-08-19T03:36:58;98756.57;;;9.57;100.00
45872;BME280;32333;55.844;-3.210;2022-08-19T03:39:26;98756.76;;;9.89;100.00
45872;BME280;32333;55.844;-3.210;2022-08-19T03:41:55;98758.39;;;10.50;100.00
45872;BME280;32333;55.844;-3.210;2022-08-19T03:44:36;98760.22;;;10.60;100.00
45872;BME280;32333;55.844;-3.210;2022-08-19T03:47:04;98762.86;;;10.39;100.00
45872;BME280;32333;55.844;-3.210;2022-08-19T03:49:32;98761.43;;;9.47;100.00
45872;BME280;32333;55.844;-3.210;2022-08-19T03:51:59;98762.72;;;10.62;100.00
45872;BME280;32333;55.844;-3.210;2022-08-19T03:54:27;98762.54;;;10.00;100.00
45872;BME280;32333;55.844;-3.210;2022-08-19T03:56:56;98763.87;;;10.16;100.00
45872;BME280;32333;55.844;-3.210;2022-08-19T03:59:27;98766.93;;;10.21;100.00
45872;BME280;32333;55.844;-3.210;2022-08-19T04:01:56;98761.68;;;9.91;100.00
45872;BME280;32333;55.844;-3.210;2022-08-19T04:04:25;98761.83;;;9.91;100.00
45872;BME280;32333;55.844;-3.210;2022-08-19T04:06:53;98765.54;;;9.40;100.00
45872;BME280;32333;55.844;-3.210;2022-08-19T04:09:22;98768.24;;;9.94;100.00
45872;BME280;32333;55.844;-3.210;2022-08-19T04:11:51;98768.17;;;9.31;100.00
45872;BME280;32333;55.844;-3.210;2022-08-19T04:14:36;98769.52;;;9.77;100.00
45872;BME280;32333;55.844;-3.210;2022-08-19T04:17:04;98769.01;;;10.11;100.00
45872;BME280;32333;55.844;-3.210;2022-08-19T04:19:32;98768.70;;;9.35;100.00
45872;BME280;32333;55.844;-3.210;2022-08-19T04:22:00;98775.43;;;10.04;100.00
45872;BME280;32333;55.844;-3.210;2022-08-19T04:24:27;98775.19;;;10.35;100.00
45872;BME280;32333;55.844;-3.210;2022-08-19T04:26:54;98773.21;;;9.84;100.00
45872;BME280;32333;55.844;-3.210;2022-08-19T04:29:24;98774.39;;;9.69;100.00
45872;BME280;32333;55.844;-3.210;2022-08-19T04:31:53;98774.30;;;9.99;100.00
45872;BME280;32333;55.844;-3.210;2022-08-19T04:34:24;98776.42;;;9.47;100.00
45872;BME280;32333;55.844;-3.210;2022-08-19T04:36:55;98781.64;;;9.46;100.00
45872;BME280;32333;55.844;-3.210;2022-08-19T04:39:25;98773.38;;;11.05;100.00
45872;BME280;32333;55.844;-3.210;2022-08-19T04:41:53;98780.61;;;10.73;100.00
45872;BME280;32333;55.844;-3.210;2022-08-19T04:44:36;98787.31;;;10.50;100.00
45872;BME280;32333;55.844;-3.210;2022-08-19T04:47:03;98786.80;;;10.46;100.00
45872;BME280;32333;55.844;-3.210;2022-08-19T04:49:31;98791.70;;;10.54;100.00
45872;BME280;32333;55.844;-3.210;2022-08-19T04:52:00;98791.30;;;10.40;100.00
45872;BME280;32333;55.844;-3.210;2022-08-19T04:54:27;98793.74;;;10.50;100.00
45872;BME280;32333;55.844;-3.210;2022-08-19T04:56:55;98793.32;;;10.49;100.00
45872;BME280;32333;55.844;-3.210;2022-08-19T04:59:23;98785.30;;;11.72;100.00
45872;BME280;32333;55.844;-3.210;2022-08-19T05:01:50;98781.45;;;11.59;100.00
45872;BME280;32333;55.844;-3.210;2022-08-19T05:04:19;98782.27;;;11.46;100.00
45872;BME280;32333;55.844;-3.210;2022-08-19T05:06:48;98783.53;;;11.94;100.00
45872;BME280;32333;55.844;-3.210;2022-08-19T05:09:16;98786.91;;;10.89;100.00
45872;BME280;32333;55.844;-3.210;2022-08-19T05:11:44;98781.19;;;10.73;100.00
45872;BME280;32333;55.844;-3.210;2022-08-19T05:14:36;98780.35;;;11.20;100.00
45872;BME280;32333;55.844;-3.210;2022-08-19T05:17:03;98787.48;;;11.00;100.00
45872;BME280;32333;55.844;-3.210;2022-08-19T05:19:30;98791.88;;;11.22;100.00
45872;BME280;32333;55.844;-3.210;2022-08-19T05:21:59;98799.25;;;11.43;100.00
45872;BME280;32333;55.844;-3.210;2022-08-19T05:24:28;98804.32;;;11.12;100.00
45872;BME280;32333;55.844;-3.210;2022-08-19T05:26:57;98807.41;;;11.70;100.00
45872;BME280;32333;55.844;-3.210;2022-08-19T05:29:27;98808.39;;;12.15;100.00
45872;BME280;32333;55.844;-3.210;2022-08-19T05:31:55;98809.47;;;12.08;100.00
45872;BME280;32333;55.844;-3.210;2022-08-19T05:34:24;98812.70;;;11.75;100.00
45872;BME280;32333;55.844;-3.210;2022-08-19T05:36:54;98812.18;;;11.28;100.00
45872;BME280;32333;55.844;-3.210;2022-08-19T05:39:23;98811.02;;;11.20;100.00
45872;BME280;32333;55.844;-3.210;2022-08-19T05:41:53;98813.89;;;11.66;100.00
45872;BME280;32333;55.844;-3.210;2022-08-19T05:44:38;98820.47;;;11.56;100.00
45872;BME280;32333;55.844;-3.210;2022-08-19T05:47:07;98825.56;;;11.34;100.00
45872;BME280;32333;55.844;-3.210;2022-08-19T05:49:36;98829.14;;;11.99;100.00
45872;BME280;32333;55.844;-3.210;2022-08-19T05:52:06;98827.69;;;11.52;100.00
45872;BME280;32333;55.844;-3.210;2022-08-19T05:54:34;98830.68;;;12.11;100.00
45872;BME280;32333;55.844;-3.210;2022-08-19T05:57:04;98837.04;;;10.95;100.00
45872;BME280;32333;55.844;-3.210;2022-08-19T05:59:32;98831.19;;;12.34;100.00
45872;BME280;32333;55.844;-3.210;2022-08-19T06:01:59;98841.75;;;11.44;100.00
45872;BME280;32333;55.844;-3.210;2022-08-19T06:04:26;98840.99;;;11.40;100.00
45872;BME280;32333;55.844;-3.210;2022-08-19T06:06:54;98849.37;;;11.03;100.00
45872;BME280;32333;55.844;-3.210;2022-08-19T06:09:22;98851.25;;;10.95;100.00
45872;BME280;32333;55.844;-3.210;2022-08-19T06:11:51;98848.13;;;10.74;100.00
45872;BME280;32333;55.844;-3.210;2022-08-19T06:14:36;98849.06;;;10.97;100.00
45872;BME280;32333;55.844;-3.210;2022-08-19T06:17:04;98854.66;;;11.38;100.00
45872;BME280;32333;55.844;-3.210;2022-08-19T06:19:31;98852.82;;;11.29;100.00
45872;BME280;32333;55.844;-3.210;2022-08-19T06:22:00;98855.02;;;11.21;100.00
45872;BME280;32333;55.844;-3.210;2022-08-19T06:24:29;98860.88;;;10.90;100.00
45872;BME280;32333;55.844;-3.210;2022-08-19T06:26:59;98856.25;;;10.52;100.00
45872;BME280;32333;55.844;-3.210;2022-08-19T06:29:28;98863.69;;;11.41;100.00
45872;BME280;32333;55.844;-3.210;2022-08-19T06:31:59;98862.61;;;11.08;100.00
45872;BME280;32333;55.844;-3.210;2022-08-19T06:34:31;98862.78;;;11.14;100.00
45872;BME280;32333;55.844;-3.210;2022-08-19T06:37:00;98861.17;;;10.92;100.00
45872;BME280;32333;55.844;-3.210;2022-08-19T06:39:30;98862.40;;;11.52;100.00
45872;BME280;32333;55.844;-3.210;2022-08-19T06:42:00;98864.05;;;10.90;100.00
45872;BME280;32333;55.844;-3.210;2022-08-19T06:44:37;98867.55;;;11.60;100.00
45872;BME280;32333;55.844;-3.210;2022-08-19T06:47:06;98865.22;;;11.17;100.00
45872;BME280;32333;55.844;-3.210;2022-08-19T06:49:35;98862.14;;;12.04;100.00
45872;BME280;32333;55.844;-3.210;2022-08-19T06:52:04;98861.68;;;11.73;100.00
45872;BME280;32333;55.844;-3.210;2022-08-19T06:54:33;98863.62;;;11.88;100.00
45872;BME280;32333;55.844;-3.210;2022-08-19T06:57:01;98872.49;;;11.95;100.00
45872;BME280;32333;55.844;-3.210;2022-08-19T06:59:30;98874.35;;;10.93;100.00
45872;BME280;32333;55.844;-3.210;2022-08-19T07:01:58;98878.19;;;11.44;100.00
45872;BME280;32333;55.844;-3.210;2022-08-19T07:04:29;98879.27;;;11.36;100.00
45872;BME280;32333;55.844;-3.210;2022-08-19T07:06:58;98879.06;;;11.65;100.00
45872;BME280;32333;55.844;-3.210;2022-08-19T07:09:27;98879.21;;;11.08;100.00
45872;BME280;32333;55.844;-3.210;2022-08-19T07:11:56;98881.37;;;11.19;100.00
45872;BME280;32333;55.844;-3.210;2022-08-19T07:14:36;98882.16;;;11.19;100.00
45872;BME280;32333;55.844;-3.210;2022-08-19T07:17:06;98885.76;;;11.54;100.00
45872;BME280;32333;55.844;-3.210;2022-08-19T07:19:36;98887.70;;;11.40;100.00
45872;BME280;32333;55.844;-3.210;2022-08-19T07:22:06;98885.97;;;11.38;100.00
45872;BME280;32333;55.844;-3.210;2022-08-19T07:24:35;98885.99;;;11.78;100.00
45872;BME280;32333;55.844;-3.210;2022-08-19T07:27:05;98883.71;;;11.51;100.00
45872;BME280;32333;55.844;-3.210;2022-08-19T07:29:34;98886.50;;;11.47;100.00
45872;BME280;32333;55.844;-3.210;2022-08-19T07:32:03;98891.79;;;11.42;100.00
45872;BME280;32333;55.844;-3.210;2022-08-19T07:34:32;98895.89;;;11.87;100.00
45872;BME280;32333;55.844;-3.210;2022-08-19T07:37:00;98888.58;;;11.94;100.00
45872;BME280;32333;55.844;-3.210;2022-08-19T07:39:30;98891.84;;;12.29;100.00
45872;BME280;32333;55.844;-3.210;2022-08-19T07:42:00;98895.48;;;11.93;100.00
45872;BME280;32333;55.844;-3.210;2022-08-19T07:44:37;98898.60;;;12.07;100.00
45872;BME280;32333;55.844;-3.210;2022-08-19T07:47:05;98896.80;;;12.57;100.00
45872;BME280;32333;55.844;-3.210;2022-08-19T07:49:34;98893.65;;;12.76;100.00
45872;BME280;32333;55.844;-3.210;2022-08-19T07:52:05;98895.77;;;13.42;100.00
45872;BME280;32333;55.844;-3.210;2022-08-19T07:54:35;98897.14;;;12.98;100.00
45872;BME280;32333;55.844;-3.210;2022-08-19T07:57:04;98897.11;;;13.42;100.00
45872;BME280;32333;55.844;-3.210;2022-08-19T07:59:32;98900.80;;;14.75;100.00
45872;BME280;32333;55.844;-3.210;2022-08-19T08:02:00;98901.12;;;14.80;100.00
45872;BME280;32333;55.844;-3.210;2022-08-19T08:04:29;98899.36;;;14.10;100.00
45872;BME280;32333;55.844;-3.210;2022-08-19T08:06:57;98897.83;;;14.72;100.00
45872;BME280;32333;55.844;-3.210;2022-08-19T08:09:33;98905.71;;;14.31;100.00
45872;BME280;32333;55.844;-3.210;2022-08-19T08:14:39;98900.33;;;14.34;100.00
45872;BME280;32333;55.844;-3.210;2022-08-19T08:17:07;98902.60;;;13.76;100.00
45872;BME280;32333;55.844;-3.210;2022-08-19T08:19:36;98901.99;;;13.73;100.00
45872;BME280;32333;55.844;-3.210;2022-08-19T08:22:03;98908.14;;;13.70;100.00
45872;BME280;32333;55.844;-3.210;2022-08-19T08:24:32;98901.64;;;14.09;100.00
45872;BME280;32333;55.844;-3.210;2022-08-19T08:27:01;98903.40;;;13.68;100.00
45872;BME280;32333;55.844;-3.210;2022-08-19T08:29:29;98902.74;;;13.74;100.00
45872;BME280;32333;55.844;-3.210;2022-08-19T08:31:57;98906.18;;;13.82;100.00
45872;BME280;32333;55.844;-3.210;2022-08-19T08:34:24;98912.14;;;14.13;100.00
45872;BME280;32333;55.844;-3.210;2022-08-19T08:36:51;98920.28;;;14.89;100.00
45872;BME280;32333;55.844;-3.210;2022-08-19T08:39:20;98923.29;;;15.12;100.00
45872;BME280;32333;55.844;-3.210;2022-08-19T08:41:53;98924.56;;;14.36;100.00
45872;BME280;32333;55.844;-3.210;2022-08-19T08:44:42;98923.54;;;14.01;100.00
45872;BME280;32333;55.844;-3.210;2022-08-19T08:47:13;98925.22;;;15.28;100.00
45872;BME280;32333;55.844;-3.210;2022-08-19T08:49:46;98929.28;;;14.30;100.00
45872;BME280;32333;55.844;-3.210;2022-08-19T08:52:20;98930.51;;;14.55;100.00
45872;BME280;32333;55.844;-3.210;2022-08-19T08:54:52;98927.18;;;14.69;100.00
45872;BME280;32333;55.844;-3.210;2022-08-19T08:57:28;98925.02;;;15.10;100.00
45872;BME280;32333;55.844;-3.210;2022-08-19T09:00:02;98919.27;;;14.29;100.00
45872;BME280;32333;55.844;-3.210;2022-08-19T09:02:31;98925.57;;;14.49;100.00
45872;BME280;32333;55.844;-3.210;2022-08-19T09:04:59;98919.95;;;14.47;100.00
45872;BME280;32333;55.844;-3.210;2022-08-19T09:07:37;98923.10;;;15.31;100.00
45872;BME280;32333;55.844;-3.210;2022-08-19T09:10:22;98923.17;;;15.57;100.00
45872;BME280;32333;55.844;-3.210;2022-08-19T09:14:41;98916.80;;;16.24;100.00
45872;BME280;32333;55.844;-3.210;2022-08-19T09:17:14;98911.73;;;15.75;100.00
45872;BME280;32333;55.844;-3.210;2022-08-19T09:19:59;98907.87;;;15.36;100.00
45872;BME280;32333;55.844;-3.210;2022-08-19T09:22:28;98899.92;;;16.53;100.00
45872;BME280;32333;55.844;-3.210;2022-08-19T09:24:56;98900.13;;;16.31;100.00
45872;BME280;32333;55.844;-3.210;2022-08-19T09:27:24;98904.82;;;15.41;100.00
45872;BME280;32333;55.844;-3.210;2022-08-19T09:29:53;98900.26;;;16.59;100.00
45872;BME280;32333;55.844;-3.210;2022-08-19T09:32:21;98896.59;;;16.36;100.00
45872;BME280;32333;55.844;-3.210;2022-08-19T09:34:50;98889.32;;;17.39;100.00
45872;BME280;32333;55.844;-3.210;2022-08-19T09:37:17;98898.05;;;16.20;100.00
45872;BME280;32333;55.844;-3.210;2022-08-19T09:39:44;98899.77;;;16.50;100.00
45872;BME280;32333;55.844;-3.210;2022-08-19T09:44:35;98893.83;;;16.34;100.00
45872;BME280;32333;55.844;-3.210;2022-08-19T09:47:02;98889.97;;;15.90;100.00
45872;BME280;32333;55.844;-3.210;2022-08-19T09:49:30;98893.24;;;16.65;100.00
45872;BME280;32333;55.844;-3.210;2022-08-19T09:51:58;98889.78;;;16.39;100.00
45872;BME280;32333;55.844;-3.210;2022-08-19T09:54:26;98901.22;;;16.77;100.00
45872;BME280;32333;55.844;-3.210;2022-08-19T09:56:55;98894.15;;;16.37;100.00
45872;BME280;32333;55.844;-3.210;2022-08-19T09:59:22;98885.62;;;16.99;100.00
45872;BME280;32333;55.844;-3.210;2022-08-19T10:01:51;98893.20;;;16.92;100.00
45872;BME280;32333;55.844;-3.210;2022-08-19T10:04:20;98897.62;;;16.43;100.00
45872;BME280;32333;55.844;-3.210;2022-08-19T10:06:49;98899.15;;;16.31;100.00
45872;BME280;32333;55.844;-3.210;2022-08-19T10:09:18;98891.18;;;17.06;100.00
45872;BME280;32333;55.844;-3.210;2022-08-19T10:11:45;98890.51;;;16.17;100.00
45872;BME280;32333;55.844;-3.210;2022-08-19T10:14:35;98888.45;;;16.48;100.00
45872;BME280;32333;55.844;-3.210;2022-08-19T10:17:03;98887.10;;;17.31;100.00
45872;BME280;32333;55.844;-3.210;2022-08-19T10:19:31;98882.50;;;16.81;100.00
45872;BME280;32333;55.844;-3.210;2022-08-19T10:21:58;98881.70;;;17.73;97.62
45872;BME280;32333;55.844;-3.210;2022-08-19T10:24:25;98879.12;;;18.75;90.70
45872;BME280;32333;55.844;-3.210;2022-08-19T10:26:53;98871.33;;;17.50;94.02
45872;BME280;32333;55.844;-3.210;2022-08-19T10:29:21;98876.64;;;17.49;92.11
45872;BME280;32333;55.844;-3.210;2022-08-19T10:31:49;98876.21;;;17.18;93.12
45872;BME280;32333;55.844;-3.210;2022-08-19T10:34:16;98871.01;;;16.98;96.78
45872;BME280;32333;55.844;-3.210;2022-08-19T10:36:44;98870.13;;;16.05;99.67
45872;BME280;32333;55.844;-3.210;2022-08-19T10:39:12;98858.71;;;16.94;99.46
45872;BME280;32333;55.844;-3.210;2022-08-19T10:41:40;98867.07;;;16.65;100.00
45872;BME280;32333;55.844;-3.210;2022-08-19T10:44:35;98855.09;;;16.26;99.78
45872;BME280;32333;55.844;-3.210;2022-08-19T10:47:03;98850.10;;;16.49;96.09
45872;BME280;32333;55.844;-3.210;2022-08-19T10:49:31;98844.53;;;16.95;96.40
45872;BME280;32333;55.844;-3.210;2022-08-19T10:51:58;98849.44;;;17.03;94.88
45872;BME280;32333;55.844;-3.210;2022-08-19T10:54:26;98856.72;;;17.31;91.84
45872;BME280;32333;55.844;-3.210;2022-08-19T10:56:53;98851.12;;;17.23;90.26
45872;BME280;32333;55.844;-3.210;2022-08-19T10:59:23;98847.47;;;18.19;90.33
45872;BME280;32333;55.844;-3.210;2022-08-19T11:01:52;98842.91;;;18.06;86.82
45872;BME280;32333;55.844;-3.210;2022-08-19T11:04:20;98842.99;;;17.96;85.36
45872;BME280;32333;55.844;-3.210;2022-08-19T11:06:48;98848.40;;;18.12;88.65
45872;BME280;32333;55.844;-3.210;2022-08-19T11:09:19;98836.45;;;18.09;85.84
45872;BME280;32333;55.844;-3.210;2022-08-19T11:11:47;98848.91;;;17.86;81.32
45872;BME280;32333;55.844;-3.210;2022-08-19T11:14:35;98848.08;;;18.67;78.03
45872;BME280;32333;55.844;-3.210;2022-08-19T11:17:04;98842.72;;;18.39;76.90
45872;BME280;32333;55.844;-3.210;2022-08-19T11:19:33;98846.35;;;18.52;76.05
45872;BME280;32333;55.844;-3.210;2022-08-19T11:22:01;98851.58;;;17.82;81.70
45872;BME280;32333;55.844;-3.210;2022-08-19T11:24:29;98857.11;;;18.43;79.24
45872;BME280;32333;55.844;-3.210;2022-08-19T11:27:01;98856.80;;;17.28;83.98
45872;BME280;32333;55.844;-3.210;2022-08-19T11:29:32;98851.09;;;17.46;84.14
45872;BME280;32333;55.844;-3.210;2022-08-19T11:32:00;98855.17;;;17.93;83.60
45872;BME280;32333;55.844;-3.210;2022-08-19T11:34:29;98852.41;;;18.02;80.51
45872;BME280;32333;55.844;-3.210;2022-08-19T11:36:57;98858.50;;;18.20;78.56
45872;BME280;32333;55.844;-3.210;2022-08-19T11:39:25;98852.62;;;16.56;82.31
45872;BME280;32333;55.844;-3.210;2022-08-19T11:41:53;98860.47;;;17.46;82.67
45872;BME280;32333;55.844;-3.210;2022-08-19T11:44:35;98854.44;;;18.03;79.62
45872;BME280;32333;55.844;-3.210;2022-08-19T11:47:02;98851.99;;;18.40;77.52
45872;BME280;32333;55.844;-3.210;2022-08-19T11:49:31;98863.41;;;17.78;80.69
45872;BME280;32333;55.844;-3.210;2022-08-19T11:51:58;98861.96;;;17.40;81.79
45872;BME280;32333;55.844;-3.210;2022-08-19T11:54:25;98863.36;;;15.94;86.62
45872;BME280;32333;55.844;-3.210;2022-08-19T11:56:52;98868.80;;;15.84;91.80
45872;BME280;32333;55.844;-3.210;2022-08-19T11:59:20;98871.18;;;16.39;88.06
45872;BME280;32333;55.844;-3.210;2022-08-19T12:01:47;98858.31;;;16.46;87.04
45872;BME280;32333;55.844;-3.210;2022-08-19T12:04:14;98868.56;;;16.33;86.40
45872;BME280;32333;55.844;-3.210;2022-08-19T12:06:41;98867.94;;;16.60;85.59
45872;BME280;32333;55.844;-3.210;2022-08-19T12:09:10;98870.22;;;16.04;87.67
45872;BME280;32333;55.844;-3.210;2022-08-19T12:11:38;98876.30;;;16.31;86.14
45872;BME280;32333;55.844;-3.210;2022-08-19T12:14:35;98877.62;;;16.01;90.08
45872;BME280;32333;55.844;-3.210;2022-08-19T12:17:03;98885.25;;;15.94;94.18
45872;BME280;32333;55.844;-3.210;2022-08-19T12:19:31;98888.30;;;16.49;94.65
45872;BME280;32333;55.844;-3.210;2022-08-19T12:21:59;98893.95;;;15.61;100.00
45872;BME280;32333;55.844;-3.210;2022-08-19T12:24:27;98887.37;;;15.85;100.00
45872;BME280;32333;55.844;-3.210;2022-08-19T12:26:54;98892.38;;;15.87;100.00
45872;BME280;32333;55.844;-3.210;2022-08-19T12:29:22;98880.03;;;16.91;96.00
45872;BME280;32333;55.844;-3.210;2022-08-19T12:31:49;98875.44;;;16.60;94.64
45872;BME280;32333;55.844;-3.210;2022-08-19T12:34:17;98882.59;;;17.08;94.55
45872;BME280;32333;55.844;-3.210;2022-08-19T12:36:44;98882.97;;;16.73;93.82
45872;BME280;32333;55.844;-3.210;2022-08-19T12:39:11;98895.49;;;16.97;94.03
45872;BME280;32333;55.844;-3.210;2022-08-19T12:41:38;98887.15;;;16.19;96.83
45872;BME280;32333;55.844;-3.210;2022-08-19T12:44:36;98892.31;;;16.02;99.49
45872;BME280;32333;55.844;-3.210;2022-08-19T12:47:03;98890.22;;;15.63;100.00
45872;BME280;32333;55.844;-3.210;2022-08-19T12:49:31;98899.86;;;15.61;100.00
45872;BME280;32333;55.844;-3.210;2022-08-19T12:51:59;98887.48;;;16.43;100.00
45872;BME280;32333;55.844;-3.210;2022-08-19T12:54:27;98897.32;;;16.69;99.24
45872;BME280;32333;55.844;-3.210;2022-08-19T12:56:57;98892.14;;;16.60;96.92
45872;BME280;32333;55.844;-3.210;2022-08-19T12:59:24;98894.56;;;16.96;96.52
45872;BME280;32333;55.844;-3.210;2022-08-19T13:01:51;98895.41;;;16.55;100.00
45872;BME280;32333;55.844;-3.210;2022-08-19T13:04:18;98879.29;;;16.95;95.04
45872;BME280;32333;55.844;-3.210;2022-08-19T13:06:46;98885.22;;;17.33;93.70